createdAt,value
2023-04-11T00:03:34.841Z,9.30
2023-04-11T00:08:37.977Z,10.60
2023-04-11T00:13:42.946Z,9.03
2023-04-11T00:18:45.876Z,9.30
2023-04-11T00:23:48.764Z,10.70
2023-04-11T00:28:53.340Z,8.50
2023-04-11T00:33:56.452Z,9.57
2023-04-11T00:39:01.177Z,8.80
2023-04-11T00:44:06.333Z,10.30
2023-04-11T00:49:09.286Z,9.60
2023-04-11T00:54:12.185Z,9.57
2023-04-11T00:59:17.064Z,9.30
2023-04-11T01:04:21.336Z,10.00
2023-04-11T01:09:26.856Z,7.70
2023-04-11T01:14:31.861Z,9.43
2023-04-11T01:19:35.420Z,8.10
2023-04-11T01:24:39.770Z,9.07
2023-04-11T01:29:43.354Z,7.30
2023-04-11T01:34:49.297Z,8.00
2023-04-11T01:39:53.734Z,8.60
2023-04-11T01:44:57.539Z,11.43
2023-04-11T01:50:00.427Z,8.87
2023-04-11T01:55:05.132Z,8.47
2023-04-11T02:00:10.894Z,9.60
2023-04-11T02:05:22.170Z,7.83
2023-04-11T02:10:26.448Z,6.63
2023-04-11T02:15:29.401Z,8.40
2023-04-11T02:20:33.578Z,8.30
2023-04-11T02:25:39.000Z,7.40
2023-04-11T02:30:42.043Z,7.30
2023-04-11T02:35:45.669Z,8.40
2023-04-11T02:40:49.987Z,7.17
2023-04-11T02:46:02.099Z,7.50
2023-04-11T02:51:09.210Z,7.50
2023-04-11T02:56:19.032Z,6.80
2023-04-11T03:01:25.403Z,5.90
2023-04-11T03:06:30.332Z,7.37
2023-04-11T03:11:37.803Z,6.63
2023-04-11T03:16:41.558Z,6.73
2023-04-11T03:21:44.514Z,7.00
2023-04-11T03:26:49.370Z,6.80
2023-04-11T03:31:54.367Z,8.13
2023-04-11T03:36:57.363Z,7.93
2023-04-11T03:42:02.447Z,8.60
2023-04-11T03:47:06.512Z,8.10
2023-04-11T03:52:17.583Z,12.23
2023-04-11T03:57:26.817Z,10.90
2023-04-11T04:02:30.763Z,8.70
2023-04-11T04:07:35.317Z,15.57
2023-04-11T04:12:49.470Z,9.07
2023-04-11T04:17:56.331Z,9.87
2023-04-11T04:23:18.264Z,7.03
2023-04-11T04:28:31.544Z,7.60
2023-04-11T04:33:37.322Z,6.50
2023-04-11T04:38:47.874Z,8.33
2023-04-11T04:43:54.811Z,9.07
2023-04-11T04:49:06.072Z,7.20
2023-04-11T04:54:10.923Z,8.77
2023-04-11T04:59:16.357Z,8.77
2023-04-11T05:04:24.563Z,7.50
2023-04-11T05:09:31.485Z,7.93
2023-04-11T05:14:47.513Z,9.37
2023-04-11T05:19:50.872Z,8.90
2023-04-11T05:24:56.947Z,7.53
2023-04-11T05:30:01.590Z,7.87
2023-04-11T05:35:07.069Z,9.73
2023-04-11T05:40:18.678Z,10.27
2023-04-11T05:45:23.742Z,9.87
2023-04-11T05:50:27.343Z,10.20
2023-04-11T05:55:30.635Z,15.60
2023-04-11T06:00:35.346Z,12.70
2023-04-11T06:05:39.014Z,9.73
2023-04-11T06:10:41.906Z,15.70
2023-04-11T06:15:46.294Z,9.17
2023-04-11T06:20:49.604Z,9.93
2023-04-11T06:25:52.938Z,9.83
2023-04-11T06:30:57.262Z,10.30
2023-04-11T06:36:00.473Z,9.30
2023-04-11T06:41:03.704Z,10.17
2023-04-11T06:46:09.183Z,10.80
2023-04-11T06:51:12.114Z,10.83
2023-04-11T06:56:15.369Z,10.77
2023-04-11T07:01:20.781Z,9.90
2023-04-11T07:06:24.067Z,10.10
2023-04-11T07:11:26.967Z,8.57
2023-04-11T07:16:31.255Z,9.53
2023-04-11T07:21:34.127Z,8.77
2023-04-11T07:26:38.917Z,6.03
2023-04-11T07:31:44.967Z,3.70
2023-04-11T07:36:49.974Z,5.30
2023-04-11T07:41:52.826Z,5.70
2023-04-11T07:46:57.112Z,6.30
2023-04-11T07:51:59.973Z,6.37
2023-04-11T07:57:02.950Z,5.30
2023-04-11T08:02:08.210Z,7.93
2023-04-11T08:07:11.509Z,6.83
2023-04-11T08:12:14.401Z,5.53
2023-04-11T08:17:27.751Z,3.40
2023-04-11T08:22:33.379Z,5.83
2023-04-11T08:27:36.922Z,6.23
2023-04-11T08:32:42.479Z,4.43
2023-04-11T08:37:45.603Z,4.40
2023-04-11T08:42:48.521Z,4.97
2023-04-11T08:47:53.023Z,5.37
2023-04-11T08:52:56.951Z,7.10
2023-04-11T08:58:02.840Z,4.30
2023-04-11T09:03:09.107Z,3.03
2023-04-11T09:08:13.700Z,4.73
2023-04-11T09:13:22.514Z,5.27
2023-04-11T09:18:38.013Z,2.90
2023-04-11T09:23:41.257Z,5.20
2023-04-11T09:28:45.577Z,4.60
2023-04-11T09:33:55.978Z,3.20
2023-04-11T09:38:59.243Z,3.23
2023-04-11T09:44:02.800Z,4.73
2023-04-11T09:49:07.112Z,9.83
2023-04-11T09:54:12.030Z,6.70
2023-04-11T09:59:16.376Z,7.97
2023-04-11T10:04:22.414Z,5.00
2023-04-11T10:09:27.698Z,3.03
2023-04-11T10:14:51.291Z,9.70
2023-04-11T10:19:57.359Z,5.93
2023-04-11T10:25:19.683Z,7.00
2023-04-11T10:30:54.955Z,3.33
2023-04-11T10:36:02.119Z,7.00
2023-04-11T10:41:21.239Z,3.50
2023-04-11T10:46:26.018Z,8.80
2023-04-11T10:51:31.582Z,3.13
2023-04-11T10:56:55.629Z,1.77
2023-04-11T11:01:59.808Z,3.90
2023-04-11T11:07:05.987Z,2.50
2023-04-11T11:12:10.235Z,3.10
2023-04-11T11:17:14.044Z,4.50
2023-04-11T11:22:19.234Z,4.80
2023-04-11T11:27:23.365Z,4.80
2023-04-11T11:32:28.726Z,2.63
2023-04-11T11:37:33.401Z,4.30
2023-04-11T11:42:37.632Z,6.20
2023-04-11T11:47:43.201Z,5.53
2023-04-11T11:52:48.833Z,2.40
2023-04-11T11:57:51.964Z,5.20
2023-04-11T12:02:56.722Z,4.67
2023-04-11T12:08:02.843Z,1.60
2023-04-11T12:13:13.402Z,2.20
2023-04-11T12:18:16.444Z,2.90
2023-04-11T12:23:21.571Z,2.10
2023-04-11T12:28:24.479Z,4.03
2023-04-11T12:33:27.443Z,4.20
2023-04-11T12:38:31.787Z,5.07
2023-04-11T12:43:34.686Z,4.57
2023-04-11T12:48:37.603Z,7.50
2023-04-11T12:53:41.834Z,2.43
2023-04-11T12:58:44.897Z,2.70
2023-04-11T13:03:47.926Z,2.23
2023-04-11T13:08:52.738Z,2.57
2023-04-11T13:13:55.707Z,2.30
2023-04-11T13:18:58.889Z,3.20
2023-04-11T13:24:03.701Z,5.03
2023-04-11T13:29:06.739Z,2.50
2023-04-11T13:34:10.840Z,2.40
2023-04-11T13:39:15.269Z,2.27
2023-04-11T13:44:18.155Z,3.03
2023-04-11T13:49:21.156Z,3.30
2023-04-11T13:54:26.173Z,3.37
2023-04-11T13:59:29.076Z,2.07
2023-04-11T14:04:32.256Z,4.23
2023-04-11T14:09:36.770Z,3.57
2023-04-11T14:14:39.780Z,2.67
2023-04-11T14:19:42.868Z,4.80
2023-04-11T14:24:47.209Z,3.73
2023-04-11T14:29:50.145Z,8.43
2023-04-11T14:34:53.777Z,4.70
2023-04-11T14:39:58.127Z,3.80
2023-04-11T14:45:01.083Z,3.93
2023-04-11T14:50:03.950Z,5.23
2023-04-11T14:55:09.828Z,8.03
2023-04-11T15:00:18.957Z,1.70
2023-04-11T15:05:23.153Z,1.20
2023-04-11T15:10:27.650Z,3.97
2023-04-11T15:15:30.600Z,7.53
2023-04-11T15:20:33.693Z,2.27
2023-04-11T15:25:38.001Z,3.07
2023-04-11T15:30:48.477Z,2.40
2023-04-11T15:35:51.957Z,1.93
2023-04-11T15:40:58.556Z,3.50
2023-04-11T15:46:03.330Z,2.50
2023-04-11T15:51:09.969Z,5.10
2023-04-11T15:56:14.543Z,2.90
2023-04-11T16:01:22.875Z,3.60
2023-04-11T16:06:25.950Z,2.57
2023-04-11T16:11:30.194Z,2.90
2023-04-11T16:16:33.224Z,3.03
2023-04-11T16:21:36.756Z,2.57
2023-04-11T16:26:41.021Z,3.83
2023-04-11T16:31:44.002Z,2.20
2023-04-11T16:36:46.965Z,3.37
2023-04-11T16:41:51.379Z,5.40
2023-04-11T16:46:55.677Z,5.13
2023-04-11T16:51:58.590Z,4.73
2023-04-11T16:57:02.962Z,10.07
2023-04-11T17:02:06.293Z,5.50
2023-04-11T17:07:10.862Z,8.03
2023-04-11T17:12:15.776Z,7.53
2023-04-11T17:17:20.509Z,6.13
2023-04-11T17:22:23.446Z,4.07
2023-04-11T17:27:27.706Z,4.63
2023-04-11T17:32:31.686Z,7.83
2023-04-11T17:37:35.920Z,23.27
2023-04-11T17:42:40.400Z,8.80
2023-04-11T17:47:43.437Z,6.30
2023-04-11T17:52:47.665Z,6.23
2023-04-11T17:57:53.757Z,8.47
2023-04-11T18:02:58.658Z,4.60
2023-04-11T18:08:03.203Z,7.03
2023-04-11T18:13:07.439Z,10.20
2023-04-11T18:18:11.176Z,6.27
2023-04-11T18:23:14.149Z,7.20
2023-04-11T18:28:18.447Z,6.83
2023-04-11T18:33:21.544Z,4.53
2023-04-11T18:38:24.504Z,8.30
2023-04-11T18:43:28.739Z,5.77
2023-04-11T18:48:31.842Z,4.53
2023-04-11T18:53:36.512Z,3.57
2023-04-11T18:58:45.738Z,4.60
2023-04-11T19:03:49.446Z,2.93
2023-04-11T19:08:52.439Z,5.10
2023-04-11T19:13:59.924Z,4.90
2023-04-11T19:19:04.039Z,5.60
2023-04-11T19:24:08.261Z,5.93
2023-04-11T19:29:12.548Z,6.00
2023-04-11T19:34:15.983Z,5.47
2023-04-11T19:39:19.086Z,3.83
2023-04-11T19:44:23.364Z,6.20
2023-04-11T19:49:26.269Z,3.50
2023-04-11T19:54:30.774Z,4.17
2023-04-11T19:59:35.017Z,5.67
2023-04-11T20:04:38.425Z,5.67
2023-04-11T20:09:41.326Z,7.57
2023-04-11T20:14:45.623Z,5.70
2023-04-11T20:19:48.613Z,3.63
2023-04-11T20:24:51.488Z,5.00
2023-04-11T20:29:56.710Z,3.23
2023-04-11T20:35:01.758Z,3.30
2023-04-11T20:40:07.773Z,6.70
2023-04-11T20:45:15.686Z,5.63
2023-04-11T20:50:19.438Z,5.33
2023-04-11T20:55:22.462Z,4.33
2023-04-11T21:00:27.041Z,5.37
2023-04-11T21:05:30.448Z,3.30
2023-04-11T21:10:33.369Z,5.80
2023-04-11T21:15:37.681Z,6.70
2023-04-11T21:20:40.814Z,4.77
2023-04-11T21:25:43.766Z,4.13
2023-04-11T21:30:47.975Z,4.83
2023-04-11T21:35:54.168Z,6.23
2023-04-11T21:40:57.941Z,4.93
2023-04-11T21:46:02.222Z,5.50
2023-04-11T21:51:05.480Z,6.37
2023-04-11T21:56:09.522Z,5.17
2023-04-11T22:01:15.125Z,6.57
2023-04-11T22:06:19.781Z,3.83
2023-04-11T22:11:23.689Z,5.03
2023-04-11T22:16:31.455Z,5.20
2023-04-11T22:21:34.482Z,5.00
2023-04-11T22:26:42.701Z,5.53
2023-04-11T22:31:49.660Z,4.10
2023-04-11T22:36:52.963Z,3.77
2023-04-11T22:41:56.012Z,6.70
2023-04-11T22:47:06.175Z,4.23
2023-04-11T22:52:10.562Z,4.40
2023-04-11T22:57:13.527Z,4.77
2023-04-11T23:02:17.835Z,4.47
2023-04-11T23:07:20.847Z,8.10
2023-04-11T23:12:23.746Z,6.17
2023-04-11T23:17:28.804Z,3.73
2023-04-11T23:22:32.505Z,3.90
2023-04-11T23:27:36.278Z,3.67
2023-04-11T23:32:41.460Z,4.20
2023-04-11T23:37:44.821Z,7.23
2023-04-11T23:42:48.108Z,9.50
2023-04-11T23:47:52.896Z,4.53
2023-04-11T23:52:55.814Z,6.20
2023-04-11T23:57:58.733Z,7.10
